createdAt,value
2023-02-16T00:01:43.851Z,92.62
2023-02-16T00:04:22.417Z,93.27
2023-02-16T00:06:50.374Z,93.23
2023-02-16T00:09:17.978Z,93.14
2023-02-16T00:12:05.981Z,91.79
2023-02-16T00:14:35.394Z,91.55
2023-02-16T00:17:02.562Z,91.74
2023-02-16T00:19:34.334Z,92.40
2023-02-16T00:22:01.104Z,91.55
2023-02-16T00:24:30.196Z,92.09
2023-02-16T00:26:58.411Z,93.17
2023-02-16T00:29:30.879Z,92.75
2023-02-16T00:31:59.552Z,92.43
2023-02-16T00:34:29.786Z,92.42
2023-02-16T00:36:57.959Z,91.42
2023-02-16T00:39:25.687Z,90.80
2023-02-16T00:41:58.705Z,90.21
2023-02-16T00:44:35.039Z,90.34
2023-02-16T00:47:06.518Z,89.45
2023-02-16T00:49:33.332Z,88.63
2023-02-16T00:52:00.126Z,88.20
2023-02-16T00:54:26.860Z,87.84
2023-02-16T00:56:53.543Z,87.86
2023-02-16T00:59:23.103Z,87.67
2023-02-16T01:01:50.481Z,87.96
2023-02-16T01:04:21.118Z,88.63
2023-02-16T01:07:06.534Z,88.44
2023-02-16T01:09:51.743Z,88.49
2023-02-16T01:12:21.199Z,88.75
2023-02-16T01:14:52.324Z,89.15
2023-02-16T01:17:19.442Z,88.82
2023-02-16T01:19:46.256Z,89.29
2023-02-16T01:22:13.488Z,89.93
2023-02-16T01:24:40.237Z,89.79
2023-02-16T01:27:11.201Z,90.27
2023-02-16T01:29:38.203Z,90.26
2023-02-16T01:32:05.063Z,90.48
2023-02-16T01:34:31.897Z,91.11
2023-02-16T01:36:58.686Z,91.11
2023-02-16T01:39:25.438Z,91.02
2023-02-16T01:42:07.560Z,91.26
2023-02-16T01:44:46.557Z,91.47
2023-02-16T01:47:27.107Z,91.71
2023-02-16T01:49:53.864Z,90.91
2023-02-16T01:52:37.897Z,91.45
2023-02-16T01:55:35.184Z,91.18
2023-02-16T01:58:08.516Z,90.66
2023-02-16T02:00:54.733Z,91.17
2023-02-16T02:03:54.133Z,91.19
2023-02-16T02:06:41.142Z,91.70
2023-02-16T02:09:51.821Z,91.71
2023-02-16T02:12:34.857Z,92.01
2023-02-16T02:15:01.645Z,92.88
2023-02-16T02:17:31.568Z,92.56
2023-02-16T02:20:08.243Z,92.70
2023-02-16T02:23:30.511Z,93.09
2023-02-16T02:26:35.014Z,92.16
2023-02-16T02:29:23.467Z,91.87
2023-02-16T02:31:56.160Z,92.47
2023-02-16T02:34:59.657Z,92.59
2023-02-16T02:37:32.007Z,91.52
2023-02-16T02:40:21.680Z,91.84
2023-02-16T02:43:09.571Z,91.75
2023-02-16T02:45:45.659Z,92.50
2023-02-16T02:48:12.421Z,92.42
2023-02-16T02:51:07.497Z,92.88
2023-02-16T02:53:37.946Z,93.61
2023-02-16T02:56:25.975Z,93.56
2023-02-16T02:59:17.008Z,94.71
2023-02-16T03:01:50.051Z,95.05
2023-02-16T03:04:20.791Z,96.74
2023-02-16T03:06:51.108Z,97.00
2023-02-16T03:09:19.080Z,97.25
2023-02-16T03:12:07.203Z,97.26
2023-02-16T03:14:45.044Z,96.73
2023-02-16T03:17:34.198Z,96.77
2023-02-16T03:20:23.541Z,96.81
2023-02-16T03:23:09.812Z,96.90
2023-02-16T03:25:57.624Z,96.79
2023-02-16T03:28:46.397Z,97.22
2023-02-16T03:31:20.129Z,97.25
2023-02-16T03:33:54.563Z,96.93
2023-02-16T03:36:27.876Z,96.41
2023-02-16T03:38:56.538Z,96.72
2023-02-16T03:41:25.035Z,96.51
2023-02-16T03:43:52.077Z,96.26
2023-02-16T03:46:19.074Z,96.63
2023-02-16T03:48:45.833Z,96.19
2023-02-16T03:51:12.673Z,96.35
2023-02-16T03:53:39.446Z,96.50
2023-02-16T03:56:06.428Z,96.37
2023-02-16T03:58:33.553Z,96.41
2023-02-16T04:01:00.290Z,95.91
2023-02-16T04:03:27.367Z,95.96
2023-02-16T04:05:54.254Z,96.51
2023-02-16T04:08:20.981Z,95.92
2023-02-16T04:10:47.798Z,95.48
2023-02-16T04:13:14.738Z,95.64
2023-02-16T04:15:41.703Z,95.58
2023-02-16T04:18:08.563Z,94.99
2023-02-16T04:20:35.933Z,94.64
2023-02-16T04:23:03.175Z,94.79
2023-02-16T04:25:30.173Z,94.56
2023-02-16T04:27:58.791Z,94.04
2023-02-16T04:30:31.066Z,94.56
2023-02-16T04:32:59.363Z,94.67
2023-02-16T04:35:26.311Z,94.75
2023-02-16T04:37:53.067Z,94.60
2023-02-16T04:40:19.977Z,93.61
2023-02-16T04:42:46.890Z,94.04
2023-02-16T04:45:14.394Z,93.84
2023-02-16T04:47:41.460Z,93.65
2023-02-16T04:50:08.687Z,93.42
2023-02-16T04:52:36.864Z,93.94
2023-02-16T04:55:05.721Z,93.10
2023-02-16T04:57:32.709Z,93.57
2023-02-16T04:59:59.456Z,94.25
2023-02-16T05:02:26.385Z,94.18
2023-02-16T05:04:53.207Z,93.65
2023-02-16T05:07:19.986Z,93.75
2023-02-16T05:09:46.745Z,94.10
2023-02-16T05:12:31.968Z,94.45
2023-02-16T05:14:58.712Z,94.03
2023-02-16T05:17:26.728Z,93.48
2023-02-16T05:19:56.464Z,94.04
2023-02-16T05:22:24.175Z,94.35
2023-02-16T05:24:51.525Z,94.58
2023-02-16T05:27:21.559Z,93.65
2023-02-16T05:29:48.618Z,93.77
2023-02-16T05:32:15.627Z,93.52
2023-02-16T05:34:44.460Z,93.45
2023-02-16T05:37:12.236Z,93.48
2023-02-16T05:39:39.118Z,93.23
2023-02-16T05:42:05.829Z,92.71
2023-02-16T05:44:32.668Z,93.57
2023-02-16T05:46:59.401Z,93.91
2023-02-16T05:49:26.285Z,93.56
2023-02-16T05:51:53.163Z,94.00
2023-02-16T05:54:20.100Z,94.17
2023-02-16T05:56:52.962Z,94.42
2023-02-16T05:59:20.149Z,93.95
2023-02-16T06:01:50.974Z,93.58
2023-02-16T06:04:18.977Z,93.60
2023-02-16T06:06:45.925Z,94.28
2023-02-16T06:09:12.760Z,94.18
2023-02-16T06:11:40.138Z,93.93
2023-02-16T06:14:13.736Z,93.97
2023-02-16T06:16:42.888Z,94.11
2023-02-16T06:19:10.536Z,93.94
2023-02-16T06:21:38.557Z,93.41
2023-02-16T06:24:07.024Z,93.15
2023-02-16T06:26:33.955Z,93.29
2023-02-16T06:29:08.119Z,93.20
2023-02-16T06:31:36.632Z,93.08
2023-02-16T06:34:04.880Z,92.50
2023-02-16T06:36:31.977Z,92.18
2023-02-16T06:38:58.757Z,91.63
2023-02-16T06:41:31.824Z,91.93
2023-02-16T06:44:07.057Z,91.29
2023-02-16T06:46:33.930Z,91.47
2023-02-16T06:49:01.401Z,92.15
2023-02-16T06:51:28.431Z,91.84
2023-02-16T06:53:55.416Z,91.33
2023-02-16T06:56:22.973Z,92.70
2023-02-16T06:58:49.986Z,92.10
2023-02-16T07:01:23.059Z,92.13
2023-02-16T07:03:51.806Z,90.61
2023-02-16T07:06:19.438Z,90.29
2023-02-16T07:08:46.517Z,89.83
2023-02-16T07:11:13.879Z,90.76
2023-02-16T07:13:40.696Z,90.87
2023-02-16T07:16:08.063Z,90.89
2023-02-16T07:18:35.004Z,90.41
2023-02-16T07:21:02.762Z,89.96
2023-02-16T07:23:29.816Z,90.01
2023-02-16T07:25:56.543Z,90.78
2023-02-16T07:28:23.561Z,91.46
2023-02-16T07:30:51.178Z,90.90
2023-02-16T07:33:18.809Z,91.76
2023-02-16T07:35:45.682Z,90.38
2023-02-16T07:38:13.041Z,87.96
2023-02-16T07:40:40.098Z,87.92
2023-02-16T07:43:07.877Z,88.36
2023-02-16T07:45:35.156Z,88.31
2023-02-16T07:48:02.985Z,89.48
2023-02-16T07:50:30.257Z,90.37
2023-02-16T07:52:57.257Z,90.64
2023-02-16T07:55:24.314Z,89.68
2023-02-16T07:57:55.398Z,89.21
2023-02-16T08:00:22.466Z,89.19
2023-02-16T08:02:49.828Z,89.40
2023-02-16T08:05:16.987Z,88.70
2023-02-16T08:07:47.880Z,89.18
2023-02-16T08:10:15.721Z,89.53
2023-02-16T08:12:43.148Z,88.51
2023-02-16T08:15:11.031Z,89.10
2023-02-16T08:17:37.996Z,89.17
2023-02-16T08:20:07.734Z,89.05
2023-02-16T08:22:35.224Z,89.39
2023-02-16T08:25:02.251Z,89.08
2023-02-16T08:27:30.770Z,88.19
2023-02-16T08:29:57.734Z,86.82
2023-02-16T08:32:24.713Z,86.13
2023-02-16T08:34:52.281Z,86.51
2023-02-16T08:37:22.604Z,86.06
2023-02-16T08:39:49.568Z,85.25
2023-02-16T08:42:17.448Z,85.63
2023-02-16T08:44:44.753Z,86.21
2023-02-16T08:47:21.113Z,85.75
2023-02-16T08:49:47.949Z,85.00
2023-02-16T08:52:14.898Z,84.94
2023-02-16T08:54:42.127Z,84.71
2023-02-16T08:57:11.926Z,84.67
2023-02-16T08:59:39.004Z,84.64
2023-02-16T09:02:06.059Z,83.72
2023-02-16T09:04:33.561Z,83.73
2023-02-16T09:07:22.383Z,84.02
2023-02-16T09:09:53.004Z,83.19
2023-02-16T09:12:19.855Z,83.59
2023-02-16T09:14:46.902Z,82.35
2023-02-16T09:17:14.456Z,82.70
2023-02-16T09:19:43.552Z,83.01
2023-02-16T09:22:10.706Z,83.26
2023-02-16T09:24:37.763Z,83.31
2023-02-16T09:27:04.665Z,82.81
2023-02-16T09:29:31.479Z,82.97
2023-02-16T09:31:58.767Z,82.34
2023-02-16T09:34:27.877Z,81.80
2023-02-16T09:36:54.799Z,80.63
2023-02-16T09:39:21.641Z,80.99
2023-02-16T09:41:54.053Z,80.16
2023-02-16T09:44:33.628Z,80.41
2023-02-16T09:47:06.772Z,78.91
2023-02-16T09:49:41.310Z,79.46
2023-02-16T09:52:08.058Z,78.75
2023-02-16T09:54:43.891Z,78.93
2023-02-16T09:57:16.465Z,78.61
2023-02-16T09:59:43.280Z,78.82
2023-02-16T10:02:51.959Z,80.15
2023-02-16T10:05:35.115Z,79.10
2023-02-16T10:08:14.468Z,79.42
2023-02-16T10:10:49.151Z,80.67
2023-02-16T10:13:19.316Z,81.76
2023-02-16T10:15:49.775Z,81.59
2023-02-16T10:18:31.526Z,81.31
2023-02-16T10:21:02.528Z,80.85
2023-02-16T10:23:44.571Z,80.09
2023-02-16T10:26:18.040Z,81.03
2023-02-16T10:28:55.488Z,79.02
2023-02-16T10:31:39.116Z,78.10
2023-02-16T10:34:05.906Z,78.00
2023-02-16T10:36:51.923Z,77.14
2023-02-16T10:39:30.253Z,77.40
2023-02-16T10:42:16.520Z,76.53
2023-02-16T10:44:52.534Z,75.23
2023-02-16T10:47:35.712Z,75.84
2023-02-16T10:50:03.751Z,74.66
2023-02-16T10:52:37.444Z,76.00
2023-02-16T10:55:04.547Z,75.26
2023-02-16T10:57:33.002Z,75.54
2023-02-16T11:00:08.262Z,75.81
2023-02-16T11:02:40.971Z,75.94
2023-02-16T11:05:26.288Z,77.59
2023-02-16T11:07:56.662Z,76.35
2023-02-16T11:10:46.243Z,77.05
2023-02-16T11:13:25.075Z,76.53
2023-02-16T11:15:55.016Z,76.43
2023-02-16T11:18:41.646Z,76.14
2023-02-16T11:21:10.542Z,75.87
2023-02-16T11:23:43.019Z,74.80
2023-02-16T11:26:10.143Z,74.56
2023-02-16T11:28:44.074Z,74.47
2023-02-16T11:31:13.666Z,75.60
2023-02-16T11:33:42.707Z,73.86
2023-02-16T11:36:43.555Z,74.01
2023-02-16T11:39:27.207Z,73.16
2023-02-16T11:41:57.739Z,73.34
2023-02-16T11:44:48.802Z,71.99
2023-02-16T11:47:38.319Z,70.76
2023-02-16T11:50:29.029Z,70.43
2023-02-16T11:53:09.401Z,69.23
2023-02-16T11:55:43.203Z,69.66
2023-02-16T11:58:21.251Z,69.58
2023-02-16T12:01:16.615Z,70.19
2023-02-16T12:03:59.971Z,70.65
2023-02-16T12:07:03.817Z,70.93
2023-02-16T12:09:45.594Z,71.65
2023-02-16T12:12:42.072Z,71.15
2023-02-16T12:15:37.857Z,70.95
2023-02-16T12:18:19.828Z,70.69
2023-02-16T12:20:58.971Z,72.84
2023-02-16T12:23:32.006Z,71.38
2023-02-16T12:26:17.052Z,71.99
2023-02-16T12:28:58.965Z,72.29
2023-02-16T12:31:47.570Z,74.12
2023-02-16T12:34:22.518Z,72.43
2023-02-16T12:37:18.659Z,73.25
2023-02-16T12:40:13.740Z,73.16
2023-02-16T12:43:32.020Z,72.81
2023-02-16T12:46:05.174Z,71.54
2023-02-16T12:48:32.908Z,71.75
2023-02-16T12:51:03.437Z,72.05
2023-02-16T12:53:42.013Z,72.28
2023-02-16T12:56:18.595Z,71.29
2023-02-16T12:58:53.373Z,71.75
2023-02-16T13:01:27.584Z,72.13
2023-02-16T13:04:14.423Z,71.80
2023-02-16T13:06:58.040Z,72.10
2023-02-16T13:09:40.640Z,70.62
2023-02-16T13:12:17.695Z,70.86
2023-02-16T13:14:52.210Z,70.71
2023-02-16T13:17:32.007Z,71.43
2023-02-16T13:21:05.975Z,72.22
2023-02-16T13:23:34.424Z,71.75
2023-02-16T13:26:19.036Z,70.72
2023-02-16T13:29:04.516Z,71.51
2023-02-16T13:32:06.209Z,71.16
2023-02-16T13:34:48.206Z,71.85
2023-02-16T13:37:20.912Z,72.70
2023-02-16T13:39:50.263Z,71.25
2023-02-16T13:42:41.540Z,71.58
2023-02-16T13:45:20.364Z,72.35
2023-02-16T13:47:47.558Z,70.88
2023-02-16T13:50:23.940Z,70.13
2023-02-16T13:52:56.803Z,71.11
2023-02-16T13:55:26.961Z,71.73
2023-02-16T13:58:04.486Z,71.71
2023-02-16T14:00:33.195Z,71.68
2023-02-16T14:03:12.160Z,72.07
2023-02-16T14:05:42.722Z,73.43
2023-02-16T14:08:19.024Z,73.13
2023-02-16T14:10:57.013Z,72.64
2023-02-16T14:13:34.421Z,73.94
2023-02-16T14:16:22.498Z,73.98
2023-02-16T14:19:19.401Z,74.26
2023-02-16T14:21:48.285Z,74.25
2023-02-16T14:24:30.775Z,73.98
2023-02-16T14:27:03.139Z,72.61
2023-02-16T14:30:05.021Z,73.62
2023-02-16T14:32:38.678Z,73.48
2023-02-16T14:35:14.381Z,74.61
2023-02-16T14:38:03.629Z,75.76
2023-02-16T14:40:57.895Z,76.56
2023-02-16T14:43:33.667Z,77.32
2023-02-16T14:46:22.409Z,77.59
2023-02-16T14:52:08.921Z,79.17
2023-02-16T14:54:48.062Z,79.34
2023-02-16T14:57:24.116Z,79.00
2023-02-16T14:59:59.793Z,78.89
2023-02-16T15:05:35.222Z,78.86
2023-02-16T15:08:23.182Z,77.84
2023-02-16T15:10:56.730Z,76.53
2023-02-16T15:13:45.205Z,77.18
2023-02-16T15:16:17.166Z,76.52
2023-02-16T15:18:53.818Z,76.27
2023-02-16T15:21:30.822Z,76.04
2023-02-16T15:24:00.507Z,75.67
2023-02-16T15:26:36.027Z,75.73
2023-02-16T15:29:33.403Z,75.21
2023-02-16T15:32:00.718Z,75.05
2023-02-16T15:34:33.383Z,74.51
2023-02-16T15:37:02.593Z,74.27
2023-02-16T15:39:49.918Z,73.70
2023-02-16T15:42:28.249Z,73.65
2023-02-16T15:44:55.143Z,73.87
2023-02-16T15:47:24.820Z,73.93
2023-02-16T15:49:52.783Z,73.78
2023-02-16T15:52:26.699Z,73.60
2023-02-16T15:54:53.931Z,73.60
2023-02-16T15:57:32.087Z,73.80
2023-02-16T16:00:06.125Z,73.83
2023-02-16T16:02:41.622Z,73.98
2023-02-16T16:05:20.893Z,74.71
2023-02-16T16:07:48.684Z,75.35
2023-02-16T16:10:20.775Z,76.25
2023-02-16T16:12:49.802Z,77.25
2023-02-16T16:15:22.985Z,77.79
2023-02-16T16:17:51.736Z,78.43
2023-02-16T16:20:32.873Z,78.85
2023-02-16T16:23:07.358Z,79.14
2023-02-16T16:25:34.193Z,79.86
2023-02-16T16:28:04.610Z,80.21
2023-02-16T16:30:37.594Z,80.87
2023-02-16T16:33:10.363Z,81.08
2023-02-16T16:35:40.938Z,81.03
2023-02-16T16:38:23.759Z,81.65
2023-02-16T16:40:54.761Z,81.73
2023-02-16T16:43:27.001Z,82.75
2023-02-16T16:46:17.722Z,82.68
2023-02-16T16:48:51.651Z,82.67
2023-02-16T16:51:43.019Z,82.34
2023-02-16T16:54:33.245Z,82.53
2023-02-16T16:57:00.170Z,82.59
2023-02-16T16:59:26.971Z,82.84
2023-02-16T17:01:53.929Z,83.19
2023-02-16T17:04:22.608Z,83.43
2023-02-16T17:06:59.568Z,83.83
2023-02-16T17:09:26.355Z,84.11
2023-02-16T17:11:53.299Z,84.62
2023-02-16T17:14:20.932Z,84.63
2023-02-16T17:16:52.675Z,84.58
2023-02-16T17:19:20.596Z,84.02
2023-02-16T17:21:48.333Z,84.94
2023-02-16T17:24:16.336Z,85.35
2023-02-16T17:26:43.417Z,85.53
2023-02-16T17:29:10.339Z,85.39
2023-02-16T17:31:37.433Z,85.12
2023-02-16T17:34:04.598Z,85.04
2023-02-16T17:36:31.421Z,84.87
2023-02-16T17:38:58.343Z,87.91
2023-02-16T17:41:28.063Z,85.78
2023-02-16T17:43:55.421Z,83.70
2023-02-16T17:46:23.421Z,82.47
2023-02-16T17:48:53.577Z,81.23
2023-02-16T17:51:22.688Z,81.12
2023-02-16T17:53:49.579Z,80.18
2023-02-16T17:56:19.429Z,81.27
2023-02-16T17:58:46.549Z,80.57
2023-02-16T18:01:15.829Z,82.79
2023-02-16T18:03:42.955Z,82.77
2023-02-16T18:06:17.233Z,82.12
2023-02-16T18:08:44.967Z,81.42
2023-02-16T18:11:11.883Z,81.49
2023-02-16T18:13:39.489Z,82.14
2023-02-16T18:16:07.907Z,82.90
2023-02-16T18:18:39.132Z,82.14
2023-02-16T18:21:09.310Z,82.29
2023-02-16T18:23:37.527Z,83.11
2023-02-16T18:26:05.726Z,83.98
2023-02-16T18:28:35.225Z,84.02
2023-02-16T18:31:09.000Z,83.55
2023-02-16T18:33:36.423Z,83.17
2023-02-16T18:36:04.883Z,83.04
2023-02-16T18:38:32.076Z,82.88
2023-02-16T18:40:59.113Z,83.02
2023-02-16T18:43:25.980Z,83.19
2023-02-16T18:45:55.627Z,82.96
2023-02-16T18:48:22.631Z,83.14
2023-02-16T18:50:49.667Z,83.78
2023-02-16T18:53:16.625Z,83.27
2023-02-16T18:55:43.531Z,83.55
2023-02-16T18:58:14.021Z,83.19
2023-02-16T19:00:42.043Z,83.13
2023-02-16T19:03:09.296Z,84.19
2023-02-16T19:05:36.270Z,83.03
2023-02-16T19:08:03.151Z,82.81
2023-02-16T19:10:30.342Z,82.47
2023-02-16T19:12:57.197Z,82.67
2023-02-16T19:15:24.140Z,82.51
2023-02-16T19:17:51.506Z,83.18
2023-02-16T19:20:19.831Z,82.00
2023-02-16T19:22:48.678Z,81.90
2023-02-16T19:25:16.336Z,81.63
2023-02-16T19:27:43.946Z,82.45
2023-02-16T19:30:12.246Z,82.23
2023-02-16T19:32:41.207Z,81.97
2023-02-16T19:35:09.635Z,81.40
2023-02-16T19:37:36.596Z,82.16
2023-02-16T19:40:06.855Z,82.07
2023-02-16T19:42:33.780Z,82.00
2023-02-16T19:45:00.678Z,82.00
2023-02-16T19:47:27.555Z,82.02
2023-02-16T19:49:54.326Z,82.15
2023-02-16T19:52:21.185Z,82.02
2023-02-16T19:54:47.948Z,82.10
2023-02-16T19:57:14.770Z,81.95
2023-02-16T19:59:41.648Z,82.06
2023-02-16T20:02:11.346Z,82.36
2023-02-16T20:04:38.405Z,82.14
2023-02-16T20:07:05.868Z,82.43
2023-02-16T20:09:32.609Z,82.31
2023-02-16T20:11:59.554Z,81.91
2023-02-16T20:14:26.246Z,82.13
2023-02-16T20:16:53.090Z,81.86
2023-02-16T20:19:19.931Z,82.44
2023-02-16T20:21:46.836Z,82.83
2023-02-16T20:24:14.356Z,82.72
2023-02-16T20:26:44.201Z,83.06
2023-02-16T20:29:13.279Z,83.70
2023-02-16T20:31:48.964Z,84.01
2023-02-16T20:34:16.001Z,83.18
2023-02-16T20:36:42.791Z,83.72
2023-02-16T20:39:09.784Z,84.23
2023-02-16T20:41:37.292Z,84.34
2023-02-16T20:44:04.893Z,84.00
2023-02-16T20:46:31.824Z,84.27
2023-02-16T20:48:58.784Z,84.39
2023-02-16T20:51:26.117Z,83.75
2023-02-16T20:53:52.893Z,84.19
2023-02-16T20:56:22.801Z,83.51
2023-02-16T20:58:51.491Z,83.14
2023-02-16T21:01:23.853Z,83.03
2023-02-16T21:03:51.943Z,82.43
2023-02-16T21:06:19.717Z,82.32
2023-02-16T21:08:46.699Z,82.40
2023-02-16T21:11:14.553Z,82.70
2023-02-16T21:13:41.919Z,82.78
2023-02-16T21:16:09.313Z,83.07
2023-02-16T21:18:39.382Z,83.21
2023-02-16T21:21:07.927Z,82.56
2023-02-16T21:23:34.689Z,82.53
2023-02-16T21:26:04.520Z,82.50
2023-02-16T21:28:31.513Z,82.16
2023-02-16T21:31:04.283Z,82.45
2023-02-16T21:33:31.154Z,82.24
2023-02-16T21:36:34.238Z,81.60
2023-02-16T21:39:02.921Z,81.83
2023-02-16T21:41:29.945Z,82.27
2023-02-16T21:44:18.115Z,82.33
2023-02-16T21:46:47.161Z,82.49
2023-02-16T21:49:19.838Z,82.28
2023-02-16T21:51:48.361Z,81.46
2023-02-16T21:54:18.485Z,81.76
2023-02-16T21:56:50.383Z,81.53
2023-02-16T21:59:19.466Z,81.40
2023-02-16T22:01:51.126Z,81.78
2023-02-16T22:04:21.685Z,81.78
2023-02-16T22:06:49.714Z,81.24
2023-02-16T22:09:21.844Z,81.44
2023-02-16T22:11:49.694Z,81.57
2023-02-16T22:14:16.998Z,81.33
2023-02-16T22:16:46.116Z,81.54
2023-02-16T22:19:16.926Z,81.36
2023-02-16T22:21:47.621Z,82.13
2023-02-16T22:24:17.027Z,81.90
2023-02-16T22:26:44.591Z,81.99
2023-02-16T22:29:12.183Z,81.79
2023-02-16T22:31:43.258Z,81.93
2023-02-16T22:34:15.912Z,82.30
2023-02-16T22:36:43.121Z,81.39
2023-02-16T22:39:12.784Z,81.11
2023-02-16T22:41:40.088Z,81.40
2023-02-16T22:44:07.231Z,81.26
2023-02-16T22:46:37.174Z,81.09
2023-02-16T22:49:03.933Z,80.91
2023-02-16T22:51:31.385Z,81.44
2023-02-16T22:53:59.169Z,81.56
2023-02-16T22:56:27.011Z,81.85
2023-02-16T22:58:57.517Z,81.58
2023-02-16T23:01:26.457Z,81.85
2023-02-16T23:03:57.378Z,82.30
2023-02-16T23:06:31.205Z,82.03
2023-02-16T23:09:00.648Z,82.11
2023-02-16T23:11:28.260Z,82.32
2023-02-16T23:13:55.202Z,82.43
2023-02-16T23:16:24.850Z,82.29
2023-02-16T23:18:52.011Z,81.90
2023-02-16T23:21:24.803Z,80.83
2023-02-16T23:23:53.097Z,80.58
2023-02-16T23:26:22.213Z,80.54
2023-02-16T23:28:54.126Z,80.85
2023-02-16T23:31:22.073Z,80.96
2023-02-16T23:33:50.019Z,80.94
2023-02-16T23:36:16.822Z,81.42
2023-02-16T23:38:43.667Z,81.87
2023-02-16T23:41:14.890Z,81.90
2023-02-16T23:43:42.237Z,81.88
2023-02-16T23:46:09.687Z,81.76
2023-02-16T23:48:38.192Z,81.69
2023-02-16T23:51:05.473Z,82.10
2023-02-16T23:53:32.253Z,82.27
2023-02-16T23:56:03.598Z,81.89
2023-02-16T23:58:32.907Z,82.15
